METAR Data
IDs: Format: Raw Decoded Include TAF

Data at: 2007 UTC 08 Aug 2020

KCMR 081955Z AUTO 23014G21KT 10SM CLR 29/M01 A3033 RMK AO2
KCMR 081935Z AUTO 20014G21KT 10SM FEW100 29/M00 A3034 RMK AO2
KCMR 081915Z AUTO 23016G23KT 10SM FEW100 29/M00 A3034 RMK AO2
KCMR 081855Z AUTO 23016G22KT 10SM FEW090 FEW110 28/03 A3035 RMK AO2
KCMR 081835Z AUTO 23016G23KT 210V270 10SM FEW090 27/03 A3035 RMK AO2
KCMR 081815Z AUTO 20011G24KT 170V230 10SM CLR 27/02 A3035 RMK AO2
KCMR 081755Z AUTO 23013G20KT 10SM CLR 27/02 A3035 RMK AO2
KCMR 081735Z AUTO 24009G18KT 10SM FEW080 27/02 A3035 RMK AO2
KCMR 081715Z AUTO 23008G19KT 10SM CLR 27/01 A3035 RMK AO2
KCMR 081655Z AUTO 22013G21KT 10SM FEW080 27/01 A3035 RMK AO2
KCMR 081635Z AUTO 23011G17KT 190V250 10SM CLR 26/00 A3035 RMK AO2
KCMR 081615Z AUTO 21011G17KT 10SM CLR 26/00 A3035 RMK AO2
KCMR 081555Z AUTO 22009G15KT 180V240 10SM CLR 25/01 A3035 RMK AO2
KCMR 081535Z AUTO 00000KT 10SM CLR 24/01 A3035 RMK AO2
KCMR 081515Z AUTO 13005KT 10SM CLR 24/01 A3036 RMK AO2
KCMR 081455Z AUTO 15004KT 10SM CLR 22/M01 A3036 RMK AO2
KCMR 081435Z AUTO 15005KT 10SM CLR 20/M01 A3036 RMK AO2
KCMR 081415Z AUTO 17005KT 10SM CLR 18/M01 A3035 RMK AO2
KCMR 081355Z AUTO 15008KT 10SM CLR 16/M02 A3034 RMK AO2
KCMR 081335Z AUTO 16008KT 10SM CLR 14/M02 A3034 RMK AO2
KCMR 081315Z AUTO 16008KT 10SM CLR 12/M03 A3033 RMK AO2
KCMR 081255Z AUTO 17009KT 10SM CLR 11/M03 A3033 RMK AO2
KCMR 081235Z AUTO 16008KT 10SM CLR 12/M02 A3032 RMK AO2
KCMR 081215Z AUTO 16008KT 10SM CLR 12/M02 A3032 RMK AO2
KCMR 081155Z AUTO 16007KT 10SM CLR 13/M02 A3031 RMK AO2
KCMR 081135Z AUTO 16008KT 10SM CLR 13/M02 A3031 RMK AO2
KCMR 081115Z AUTO 16008KT 10SM CLR 12/M03 A3031 RMK AO2
KCMR 081055Z AUTO 16007KT 10SM CLR 12/M03 A3030 RMK AO2
KCMR 081035Z AUTO 16007KT 10SM CLR 13/M04 A3030 RMK AO2
KCMR 081015Z AUTO 16006KT 10SM CLR 13/M04 A3030 RMK AO2
KCMR 080955Z AUTO 15005KT 10SM CLR 12/M03 A3031 RMK AO2
KCMR 080935Z AUTO 15004KT 10SM CLR 12/M03 A3030 RMK AO2
KCMR 080915Z AUTO 14004KT 10SM CLR 13/M03 A3030 RMK AO2
KCMR 080855Z AUTO 14004KT 10SM CLR 13/M03 A3030 RMK AO2
KCMR 080835Z AUTO 13003KT 10SM CLR 13/M03 A3030 RMK AO2
KCMR 080815Z AUTO 16004KT 10SM CLR 13/M03 A3030 RMK AO2
KCMR 080755Z AUTO 21004KT 10SM CLR 15/M04 A3030 RMK AO2
KCMR 080735Z AUTO 20007KT 10SM CLR 17/M06 A3030 RMK AO2
KCMR 080715Z AUTO 20008KT 10SM CLR 18/M05 A3031 RMK AO2
KCMR 080655Z AUTO 20008KT 10SM CLR 19/M04 A3031 RMK AO2
KCMR 080635Z AUTO 20008KT 10SM CLR 19/M04 A3031 RMK AO2
KCMR 080615Z AUTO 21008KT 10SM CLR 20/M04 A3030 RMK AO2
KCMR 080555Z AUTO 20008KT 10SM CLR 20/M03 A3030 RMK AO2
KCMR 080535Z AUTO 20008KT 10SM CLR 20/M02 A3030 RMK AO2
KCMR 080515Z AUTO 20008KT 10SM CLR 19/M01 A3030 RMK AO2
KCMR 080455Z AUTO 20007KT 10SM CLR 19/M01 A3030 RMK AO2
KCMR 080435Z AUTO 21006KT 10SM CLR 19/M02 A3029 RMK AO2
KCMR 080415Z AUTO 21007KT 10SM CLR 20/M02 A3029 RMK AO2
KCMR 080355Z AUTO 20007KT 10SM CLR 21/M01 A3028 RMK AO2
KCMR 080335Z AUTO 20006KT 10SM CLR 21/M02 A3028 RMK AO2
KCMR 080315Z AUTO 20006KT 10SM CLR 21/M02 A3027 RMK AO2
KCMR 080255Z AUTO 21006KT 10SM CLR 23/M02 A3027 RMK AO2
KCMR 080235Z AUTO 21007G14KT 10SM CLR 23/M02 A3026 RMK AO2
KCMR 080215Z AUTO 22008G17KT 10SM CLR 24/M02 A3026 RMK AO2
KCMR 080155Z AUTO 22011G18KT 10SM CLR 25/M02 A3026 RMK AO2
KCMR 080135Z AUTO 23009G19KT 10SM CLR 25/M02 A3025 RMK AO2
KCMR 080115Z AUTO 22011G16KT 10SM CLR 26/M03 A3025 RMK AO2
KCMR 080055Z AUTO 21013G19KT 10SM CLR 27/M02 A3025 RMK AO2
KCMR 080035Z AUTO 23012G18KT 10SM CLR 27/M02 A3024 RMK AO2
KCMR 080015Z AUTO 23008G24KT 210V270 10SM CLR 27/M02 A3024 RMK AO2
KCMR 072355Z AUTO 23014G21KT 10SM CLR 27/M03 A3024 RMK AO2
KCMR 072335Z AUTO 24012G26KT 10SM CLR 28/M02 A3024 RMK AO2
KCMR 072315Z AUTO 22011G21KT 160V270 10SM CLR 28/M02 A3024 RMK AO2
KCMR 072255Z AUTO 20010G25KT 170V240 10SM CLR 28/M04 A3025 RMK AO2
KCMR 072235Z AUTO 22018G26KT 10SM CLR 28/M04 A3025 RMK AO2
KCMR 072215Z AUTO 19016G25KT 10SM CLR 29/M04 A3025 RMK AO2
KCMR 072155Z AUTO 23014G21KT 10SM CLR 29/M04 A3025 RMK AO2
KCMR 072135Z AUTO 17015G25KT 10SM CLR 28/M04 A3025 RMK AO2
KCMR 072115Z AUTO 22016KT 180V240 10SM FEW110 29/M04 A3026 RMK AO2
KCMR 072055Z AUTO 22013G25KT 190V250 10SM CLR 28/M03 A3027 RMK AO2
KCMR 072035Z AUTO 20017G30KT 10SM CLR 28/M04 A3027 RMK AO2
KCMR 072015Z AUTO 19019G28KT 10SM CLR 28/M03 A3027 RMK AO2
KCMR 071955Z AUTO 23019G29KT 10SM CLR 28/M03 A3027 RMK AO2
KCMR 071935Z AUTO 18014G22KT 10SM CLR 27/M02 A3027 RMK AO2
KCMR 071915Z AUTO 19020G26KT 10SM CLR 27/M03 A3028 RMK AO2
KCMR 071855Z AUTO 22015G24KT 190V250 10SM CLR 27/M03 A3028 RMK AO2
KCMR 071835Z AUTO 19017G24KT 10SM CLR 27/M03 A3028 RMK AO2
KCMR 071815Z AUTO 19010G21KT 170V230 10SM CLR 27/M03 A3029 RMK AO2
KCMR 071755Z AUTO 20014G20KT 10SM CLR 27/M02 A3028 RMK AO2
KCMR 071735Z AUTO 22017G23KT 10SM CLR 26/M03 A3028 RMK AO2
KCMR 071715Z AUTO 19015G22KT 10SM CLR 25/M02 A3028 RMK AO2
KCMR 071655Z AUTO 21014KT 10SM CLR 25/M02 A3028 RMK AO2
KCMR 071635Z AUTO 22014G25KT 10SM CLR 25/M01 A3028 RMK AO2
KCMR 071615Z AUTO 21010G19KT 10SM CLR 24/M02 A3027 RMK AO2
KCMR 071555Z AUTO 21012G19KT 10SM CLR 24/M01 A3027 RMK AO2
KCMR 071535Z AUTO 19011KT 10SM CLR 24/M01 A3027 RMK AO2
KCMR 071515Z AUTO 21009G15KT 10SM CLR 23/M01 A3026 RMK AO2
KCMR 071455Z AUTO 19010G20KT 10SM CLR 23/M02 A3026 RMK AO2
KCMR 071435Z AUTO 20014KT 10SM CLR 22/M02 A3025 RMK AO2
KCMR 071415Z AUTO 18011KT 10SM CLR 22/M02 A3024 RMK AO2
KCMR 071355Z AUTO 19008KT 10SM CLR 21/M02 A3024 RMK AO2
KCMR 071335Z AUTO 18008KT 10SM CLR 18/M03 A3023 RMK AO2
KCMR 071315Z AUTO 20005G11KT 10SM CLR 17/M03 A3023 RMK AO2
KCMR 071255Z AUTO 19008KT 10SM CLR 16/M04 A3022 RMK AO2
KCMR 071235Z AUTO 20007KT 10SM CLR 16/M05 A3021 RMK AO2
KCMR 071215Z AUTO 20006KT 10SM CLR 13/M05 A3021 RMK AO2
KCMR 071155Z AUTO 21006KT 10SM CLR 14/M05 A3021 RMK AO2
KCMR 071135Z AUTO 17005KT 10SM CLR 12/M07 A3021 RMK AO2
KCMR 071115Z AUTO 15006KT 10SM CLR 12/M07 A3021 RMK AO2
KCMR 071055Z AUTO 16006KT 10SM CLR 12/M07 A3021 RMK AO2
KCMR 071035Z AUTO 15006KT 10SM CLR 12/M07 A3021 RMK AO2
KCMR 071015Z AUTO 15007KT 10SM CLR 12/M07 A3021 RMK AO2
KCMR 070955Z AUTO 10SM CLR 12/M07 A3021 RMK AO2
KCMR 070935Z AUTO 13006KT 10SM CLR 11/M07 A3021 RMK AO2
KCMR 070915Z AUTO 15006KT 10SM CLR 11/M07 A3020 RMK AO2
KCMR 070855Z AUTO 10SM CLR 13/M07 A3021 RMK AO2
KCMR 070835Z AUTO 10SM CLR 11/M08 A3021 RMK AO2
KCMR 070815Z AUTO 10SM CLR 12/M08 A3021 RMK AO2